Latest Weather Observations for Esperance Harbour

IDW60801

Issued at 3:32 pm WST Friday 27 March 2015 (issued every 30 minutes, with the page automatically refreshed every 10 minutes)

About weather observations | Map of weather stations | Latest weather observations for WA | Other Formats
Station Details ID: 109504 Name: ESPERANCE NTC AWS Lat: -33.87 Lon: 121.90 Height: 0.0 m
Data from the previous 72 hours. | See also: Recent months for locations in Western Australia
Date/Time
WST
Temp
°C
App
Temp
°C
Dew
Point
Rel
Hum
%
Delta-T
°C
Wind Press
QNH
hPa
Press
MSL
hPa
Rain
since 9 am
mm
Dir
 
Spd
km/h
Gust
km/h
Spd
kts
Gust
kts
27/03:30pm 22.1 - - - - - - - - - 1020.0 1020.0 -
27/03:00pm 23.1 - - - - - - - - - 1020.0 1020.0 -
27/02:30pm 23.2 - - - - - - - - - 1020.1 1020.1 -
27/02:00pm 23.7 - - - - - - - - - 1020.0 1020.0 -
27/01:30pm 23.6 - - - - - - - - - 1020.4 1020.4 -
27/01:00pm 23.5 - - - - - - - - - 1021.1 1021.0 -
27/12:30pm 22.7 - - - - - - - - - 1021.5 1021.4 -
27/12:00pm 22.5 - - - - - - - - - 1022.0 1021.9 -
27/11:30am 22.6 - - - - - - - - - 1022.5 1022.4 -
27/11:00am 21.6 - - - - - - - - - 1023.2 1023.1 -
27/10:30am 21.1 - - - - - - - - - 1023.7 1023.6 -
27/10:00am 20.4 - - - - - - - - - 1024.1 1024.0 -
27/09:30am 19.8 - - - - - - - - - 1024.6 1024.5 -
27/09:00am 18.8 - - - - - - - - - 1024.8 1024.7 -
27/08:30am 17.6 - - - - - - - - - 1025.1 1025.0 -
27/08:00am 16.2 - - - - - - - - - 1025.2 1025.1 -
27/07:30am 16.3 - - - - - - - - - 1025.3 1025.2 -
27/07:00am 15.7 - - - - - - - - - 1025.1 1025.0 -
27/06:30am 15.2 - - - - - - - - - 1025.0 1024.9 -
27/06:00am 15.4 - - - - - - - - - 1025.4 1025.3 -
27/05:30am 15.4 - - - - - - - - - 1025.4 1025.3 -
27/05:00am 15.2 - - - - - - - - - 1025.3 1025.2 -
27/04:30am 15.1 - - - - - - - - - 1025.3 1025.2 -
27/04:00am 15.3 - - - - - - - - - 1025.4 1025.3 -
27/03:30am 15.6 - - - - - - - - - 1025.2 1025.1 -
27/03:00am 15.2 - - - - - - - - - 1025.4 1025.3 -
27/02:30am 15.1 - - - - - - - - - 1025.6 1025.5 -
27/02:00am 15.1 - - - - - - - - - 1025.8 1025.7 -
27/01:30am 15.4 - - - - - - - - - 1025.9 1025.8 -
27/01:00am 15.6 - - - - - - - - - 1026.0 1025.9 -
27/12:30am 15.6 - - - - - - - - - 1026.4 1026.3 -
27/12:00am 16.0 - - - - - - - - - 1026.7 1026.6 -
 
Date/Time
WST
Temp
°C
App
Temp
°C
Dew
Point
Rel
Hum
%
Delta-T
°C
Wind Press
QNH
hPa
Press
MSL
hPa
Rain
since 9 am
mm
Dir
 
Spd
km/h
Gust
km/h
Spd
kts
Gust
kts
26/11:30pm 15.8 - - - - - - - - - 1027.0 1026.9 -
26/11:00pm 16.0 - - - - - - - - - 1027.2 1027.1 -
26/10:30pm 16.3 - - - - - - - - - 1027.4 1027.3 -
26/10:00pm 16.9 - - - - - - - - - 1027.4 1027.3 -
26/09:30pm 17.0 - - - - - - - - - 1027.6 1027.5 -
26/09:00pm 17.1 - - - - - - - - - 1027.5 1027.4 -
26/08:30pm 17.5 - - - - - - - - - 1027.7 1027.6 -
26/08:00pm 17.8 - - - - - - - - - 1027.7 1027.6 -
26/07:30pm 18.3 - - - - - - - - - 1027.6 1027.5 -
26/07:00pm 18.8 - - - - - - - - - 1027.3 1027.2 -
26/06:30pm 18.7 - - - - - - - - - 1027.0 1026.9 -
26/06:00pm 18.7 - - - - - - - - - 1026.7 1026.6 -
26/05:30pm 18.9 - - - - - - - - - 1026.6 1026.5 -
26/05:00pm 18.8 - - - - - - - - - 1026.6 1026.5 -
26/04:30pm 19.2 - - - - - - - - - 1026.5 1026.4 -
26/04:00pm 19.5 - - - - - - - - - 1026.7 1026.6 -
26/03:30pm 19.7 - - - - - - - - - 1026.7 1026.6 -
26/03:00pm 19.9 - - - - - - - - - 1026.8 1026.7 -
26/02:30pm 20.1 - - - - - - - - - 1027.1 1027.0 -
26/02:00pm 20.4 - - - - - - - - - 1027.3 1027.2 -
26/01:30pm 20.4 - - - - - - - - - 1027.6 1027.5 -
26/01:00pm 21.4 - - - - - - - - - 1028.0 1027.9 -
26/12:30pm 20.4 - - - - - - - - - 1028.4 1028.3 -
26/12:00pm 20.3 - - - - - - - - - 1028.8 1028.7 -
26/11:30am 19.7 - - - - - - - - - 1029.4 1029.3 -
26/11:00am 19.1 - - - - - - - - - 1030.0 1029.9 -
26/10:30am 18.5 - - - - - - - - - 1030.5 1030.4 -
26/10:00am 18.1 - - - - - - - - - 1030.9 1030.8 -
26/09:30am 17.7 - - - - - - - - - 1031.2 1031.1 -
26/09:00am 16.4 - - - - - - - - - 1031.4 1031.3 -
26/08:30am 14.7 - - - - - - - - - 1031.5 1031.4 -
26/08:00am 13.4 - - - - - - - - - 1031.3 1031.2 -
26/07:30am 12.4 - - - - - - - - - 1031.1 1031.0 -
26/07:00am 11.6 - - - - - - - - - 1030.9 1030.8 -
26/06:30am 11.0 - - - - - - - - - 1030.6 1030.5 -
26/06:00am 10.9 - - - - - - - - - 1030.2 1030.1 -
26/05:30am 10.9 - - - - - - - - - 1030.1 1030.0 -
26/05:00am 12.8 - - - - - - - - - 1029.8 1029.7 -
26/04:30am 12.7 - - - - - - - - - 1029.7 1029.6 -
26/04:00am 13.1 - - - - - - - - - 1029.6 1029.5 -
26/03:30am 13.0 - - - - - - - - - 1029.5 1029.4 -
26/03:00am 13.4 - - - - - - - - - 1029.6 1029.5 -
26/02:30am 13.5 - - - - - - - - - 1029.7 1029.6 -
26/02:00am 14.0 - - - - - - - - - 1029.7 1029.6 -
26/01:30am 13.7 - - - - - - - - - 1030.0 1029.9 -
26/01:00am 13.9 - - - - - - - - - 1030.1 1030.0 -
26/12:30am 14.0 - - - - - - - - - 1030.0 1029.9 -
26/12:00am 15.9 - - - - - - - - - 1029.8 1029.7 -
 
Date/Time
WST
Temp
°C
App
Temp
°C
Dew
Point
Rel
Hum
%
Delta-T
°C
Wind Press
QNH
hPa
Press
MSL
hPa
Rain
since 9 am
mm
Dir
 
Spd
km/h
Gust
km/h
Spd
kts
Gust
kts
25/11:30pm 16.0 - - - - - - - - - 1029.8 1029.7 -
25/11:00pm 15.9 - - - - - - - - - 1029.8 1029.7 -
25/10:30pm 15.9 - - - - - - - - - 1029.9 1029.8 -
25/10:00pm 16.0 - - - - - - - - - 1030.0 1029.9 -
25/09:30pm 16.2 - - - - - - - - - 1029.9 1029.8 -
25/09:00pm 16.3 - - - - - - - - - 1030.0 1029.9 -
25/08:30pm 16.5 - - - - - - - - - 1030.2 1030.1 -
25/08:00pm 16.8 - - - - - - - - - 1030.0 1029.9 -
25/07:30pm 16.9 - - - - - - - - - 1029.7 1029.6 -
25/07:00pm 17.0 - - - - - - - - - 1029.4 1029.3 -
25/06:30pm 17.0 - - - - - - - - - 1029.2 1029.1 -
25/06:00pm 17.2 - - - - - - - - - 1029.0 1028.9 -
25/05:30pm 17.5 - - - - - - - - - 1028.9 1028.8 -
25/05:00pm 17.8 - - - - - - - - - 1028.6 1028.5 -
25/04:30pm 18.2 - - - - - - - - - 1028.5 1028.4 -
25/04:00pm 18.3 - - - - - - - - - 1028.3 1028.2 -
25/03:30pm 18.3 - - - - - - - - - 1028.2 1028.1 -
25/03:00pm 18.4 - - - - - - - - - 1028.1 1028.0 -
25/02:30pm 18.2 - - - - - - - - - 1028.1 1028.0 -
25/02:00pm 18.4 - - - - - - - - - 1028.0 1027.9 -
25/01:30pm 18.0 - - - - - - - - - 1028.1 1028.0 -
25/01:00pm 18.4 - - - - - - - - - 1028.0 1027.9 -
25/12:30pm 18.6 - - - - - - - - - 1028.1 1028.0 -
25/12:00pm 18.1 - - - - - - - - - 1028.2 1028.1 -
25/11:30am 17.6 - - - - - - - - - 1028.3 1028.2 -
25/11:00am 17.1 - - - - - - - - - 1028.5 1028.4 -
25/10:30am 16.9 - - - - - - - - - 1028.5 1028.4 -
25/10:00am 16.7 - - - - - - - - - 1028.4 1028.3 -
25/09:30am 17.4 - - - - - - - - - 1028.1 1028.0 -
25/09:00am 17.5 - - - - - - - - - 1027.7 1027.6 -
25/08:30am 16.2 - - - - - - - - - 1027.3 1027.2 -
25/08:00am 14.1 - - - - - - - - - 1027.1 1027.0 -
25/07:30am 12.3 - - - - - - - - - 1026.8 1026.7 -
25/07:00am 11.3 - - - - - - - - - 1026.7 1026.6 -
25/06:30am 10.6 - - - - - - - - - 1026.3 1026.2 -
25/06:00am 10.6 - - - - - - - - - 1026.2 1026.1 -
25/05:30am 10.2 - - - - - - - - - 1025.8 1025.7 -
25/05:00am 10.3 - - - - - - - - - 1025.4 1025.3 -
25/04:30am 10.7 - - - - - - - - - 1025.3 1025.2 -
25/04:00am 11.0 - - - - - - - - - 1024.8 1024.7 -
25/03:30am 11.1 - - - - - - - - - 1024.8 1024.7 -
25/03:00am 11.3 - - - - - - - - - 1024.7 1024.6 -
25/02:30am 12.4 - - - - - - - - - 1024.6 1024.5 -
25/02:00am 12.6 - - - - - - - - - 1024.6 1024.5 -
25/01:30am 13.0 - - - - - - - - - 1024.6 1024.5 -
25/01:00am 13.9 - - - - - - - - - 1024.8 1024.7 -
25/12:30am 14.2 - - - - - - - - - 1024.9 1024.8 -
25/12:00am 14.9 - - - - - - - - - 1025.0 1024.9 -
 
Date/Time
WST
Temp
°C
App
Temp
°C
Dew
Point
Rel
Hum
%
Delta-T
°C
Wind Press
QNH
hPa
Press
MSL
hPa
Rain
since 9 am
mm
Dir
 
Spd
km/h
Gust
km/h
Spd
kts
Gust
kts
24/11:30pm 17.7 - - - - - - - - - 1024.8 1024.7 -
24/11:00pm 17.8 - - - - - - - - - 1024.6 1024.5 -
24/10:30pm 17.9 - - - - - - - - - 1024.7 1024.6 -
24/10:00pm 18.1 - - - - - - - - - 1024.8 1024.7 -
24/09:30pm 18.0 - - - - - - - - - 1024.7 1024.6 -
24/09:00pm 18.1 - - - - - - - - - 1024.6 1024.5 -
24/08:30pm 18.1 - - - - - - - - - 1024.4 1024.3 -
24/08:00pm 18.2 - - - - - - - - - 1024.2 1024.1 -
24/07:30pm 18.3 - - - - - - - - - 1024.1 1024.0 -
24/07:00pm 18.4 - - - - - - - - - 1023.8 1023.7 -
24/06:30pm 18.4 - - - - - - - - - 1023.6 1023.5 -
24/06:00pm 18.5 - - - - - - - - - 1023.4 1023.3 -
24/05:30pm 18.7 - - - - - - - - - 1023.2 1023.1 -
24/05:00pm 19.5 - - - - - - - - - 1022.9 1022.8 -
24/04:30pm 19.6 - - - - - - - - - 1022.8 1022.7 -
24/04:00pm 19.9 - - - - - - - - - 1022.7 1022.6 -

Other Formats:

Comma delimited format used in spreadsheet applications
http://www.bom.gov.au/fwo/IDW60801/IDW60801.95648.axf

JavaScript Object Notation format (JSON) in row-major order
http://www.bom.gov.au/fwo/IDW60801/IDW60801.95648.json